SGCO/CIO METAR and TAF weather

Enter ICAO airport designator
Station Type Date Time Source
SGCO METAR 2021/01/10 03:00 UTC NOAA

SGCO 100300Z 19006KT CAVOK 27/24 Q1008


Station Type Date Time Source
SGCO Decoded METAR 2021/01/10 03:00 UTC NOAA

Concepcion, Paraguay (SGCO) 23-25S 057-18W 74M
Jan 09, 2021 - 10:00 PM EST / 2021.01.10 0300 UTC
Wind: from the S (190 degrees) at 7 MPH (6 KT):0
Visibility: greater than 7 mile(s):0
Temperature: 80 F (27 C)
Dew Point: 75 F (24 C)
Relative Humidity: 83%
Pressure (altimeter): 29.77 in. Hg (1008 hPa)
ob: SGCO 100300Z 19006KT CAVOK 27/24 Q1008
cycle: 3

Station Type Date Time Source
SGCO TAF 2021/01/15 18:00 UTC NOAA

TAF SGCO 151700Z 1518/1618 07010KT 9999 BKN027 FEW040TCU TX37/1519Z TN25/1609Z PROB30
TEMPO 1520/1522 VRB03KT 8000 TS SHRA BKN027 FEW040CB
BECMG 1523/1602 09005KT 9999 SCT030
BECMG 1604/1607 VRB03KT CAVOK
BECMG 1612/1615 05010KT 9999 SCT030

Example: see airport list